sensor_id;sensor_type;location;lat;lon;timestamp;pressure;altitude;pressure_sealevel;temperature;humidity
39363;BME280;25088;43.238;23.110;2024-03-02T00:00:51;96049.47;;;9.33;100.00
39363;BME280;25088;43.238;23.110;2024-03-02T00:03:17;96048.88;;;9.26;100.00
39363;BME280;25088;43.238;23.110;2024-03-02T00:05:43;96051.59;;;9.26;100.00
39363;BME280;25088;43.238;23.110;2024-03-02T00:08:09;96045.88;;;9.28;100.00
39363;BME280;25088;43.238;23.110;2024-03-02T00:10:38;96039.66;;;9.32;100.00
39363;BME280;25088;43.238;23.110;2024-03-02T00:13:08;96049.47;;;9.33;100.00
39363;BME280;25088;43.238;23.110;2024-03-02T00:15:40;96041.78;;;9.25;100.00
39363;BME280;25088;43.238;23.110;2024-03-02T00:18:10;96018.50;;;9.13;100.00
39363;BME280;25088;43.238;23.110;2024-03-02T00:20:36;96038.78;;;9.27;100.00
39363;BME280;25088;43.238;23.110;2024-03-02T00:23:09;96039.09;;;9.30;100.00
39363;BME280;25088;43.238;23.110;2024-03-02T00:25:43;96037.47;;;9.35;100.00
39363;BME280;25088;43.238;23.110;2024-03-02T00:33:33;96033.44;;;9.37;100.00
39363;BME280;25088;43.238;23.110;2024-03-02T00:35:59;96038.97;;;9.15;100.00
39363;BME280;25088;43.238;23.110;2024-03-02T00:38:25;96030.22;;;9.13;100.00
39363;BME280;25088;43.238;23.110;2024-03-02T00:40:52;96046.41;;;9.25;100.00
39363;BME280;25088;43.238;23.110;2024-03-02T00:45:49;96019.19;;;9.25;100.00
39363;BME280;25088;43.238;23.110;2024-03-02T00:48:15;96035.38;;;9.42;100.00
39363;BME280;25088;43.238;23.110;2024-03-02T00:50:42;96041.34;;;9.39;100.00
39363;BME280;25088;43.238;23.110;2024-03-02T00:53:10;96038.13;;;9.47;100.00
39363;BME280;25088;43.238;23.110;2024-03-02T00:55:37;96048.72;;;9.43;100.00
39363;BME280;25088;43.238;23.110;2024-03-02T00:58:03;96026.81;;;9.28;100.00
39363;BME280;25088;43.238;23.110;2024-03-02T01:00:29;96028.38;;;9.19;100.00
39363;BME280;25088;43.238;23.110;2024-03-02T01:02:54;96040.69;;;9.26;100.00
39363;BME280;25088;43.238;23.110;2024-03-02T01:05:20;96051.38;;;9.33;100.00
39363;BME280;25088;43.238;23.110;2024-03-02T01:07:45;96043.78;;;9.35;100.00
39363;BME280;25088;43.238;23.110;2024-03-02T01:10:11;96049.78;;;9.37;100.00
39363;BME280;25088;43.238;23.110;2024-03-02T01:12:36;96035.56;;;9.30;100.00
39363;BME280;25088;43.238;23.110;2024-03-02T01:15:02;96038.53;;;9.28;100.00
39363;BME280;25088;43.238;23.110;2024-03-02T01:17:31;96027.38;;;9.30;100.00
39363;BME280;25088;43.238;23.110;2024-03-02T01:19:56;96041.91;;;9.41;100.00
39363;BME280;25088;43.238;23.110;2024-03-02T01:22:23;96031.25;;;9.39;100.00
39363;BME280;25088;43.238;23.110;2024-03-02T01:24:51;96027.44;;;9.35;100.00
39363;BME280;25088;43.238;23.110;2024-03-02T01:27:16;96028.53;;;9.39;100.00
39363;BME280;25088;43.238;23.110;2024-03-02T01:29:42;96027.97;;;9.37;100.00
39363;BME280;25088;43.238;23.110;2024-03-02T01:32:07;96039.19;;;9.41;100.00
39363;BME280;25088;43.238;23.110;2024-03-02T01:34:33;96046.50;;;9.35;100.00
39363;BME280;25088;43.238;23.110;2024-03-02T01:36:58;96032.22;;;9.23;100.00
39363;BME280;25088;43.238;23.110;2024-03-02T01:39:23;96038.78;;;9.27;100.00
39363;BME280;25088;43.238;23.110;2024-03-02T01:41:49;96035.88;;;9.39;100.00
39363;BME280;25088;43.238;23.110;2024-03-02T01:44:14;96037.28;;;9.41;100.00
39363;BME280;25088;43.238;23.110;2024-03-02T01:46:41;96036.16;;;9.37;100.00
39363;BME280;25088;43.238;23.110;2024-03-02T01:49:07;96030.97;;;9.36;100.00
39363;BME280;25088;43.238;23.110;2024-03-02T01:51:32;96028.75;;;9.32;100.00
39363;BME280;25088;43.238;23.110;2024-03-02T01:53:58;96016.19;;;9.26;100.00
39363;BME280;25088;43.238;23.110;2024-03-02T01:56:23;96021.13;;;9.35;100.00
39363;BME280;25088;43.238;23.110;2024-03-02T01:58:49;95990.78;;;9.16;100.00
39363;BME280;25088;43.238;23.110;2024-03-02T02:01:15;95985.44;;;8.99;100.00
39363;BME280;25088;43.238;23.110;2024-03-02T02:03:42;95995.19;;;8.95;100.00
39363;BME280;25088;43.238;23.110;2024-03-02T02:06:08;96002.50;;;8.89;100.00
39363;BME280;25088;43.238;23.110;2024-03-02T02:08:34;95992.34;;;8.79;100.00
39363;BME280;25088;43.238;23.110;2024-03-02T02:10:59;95997.31;;;8.88;100.00
39363;BME280;25088;43.238;23.110;2024-03-02T02:13:25;95999.53;;;8.91;100.00
39363;BME280;25088;43.238;23.110;2024-03-02T02:15:50;95984.78;;;8.87;100.00
39363;BME280;25088;43.238;23.110;2024-03-02T02:18:16;95968.88;;;8.73;100.00
39363;BME280;25088;43.238;23.110;2024-03-02T02:20:41;95974.94;;;8.80;100.00
39363;BME280;25088;43.238;23.110;2024-03-02T02:23:07;95985.97;;;8.96;100.00
39363;BME280;25088;43.238;23.110;2024-03-02T02:25:35;95973.91;;;8.87;100.00
39363;BME280;25088;43.238;23.110;2024-03-02T02:28:00;95985.16;;;8.95;100.00
39363;BME280;25088;43.238;23.110;2024-03-02T02:30:31;95995.59;;;9.09;100.00
39363;BME280;25088;43.238;23.110;2024-03-02T02:32:57;95977.19;;;8.89;100.00
39363;BME280;25088;43.238;23.110;2024-03-02T02:35:23;96000.91;;;8.93;100.00
39363;BME280;25088;43.238;23.110;2024-03-02T02:37:53;95995.34;;;9.10;100.00
39363;BME280;25088;43.238;23.110;2024-03-02T02:40:18;95993.22;;;9.17;100.00
39363;BME280;25088;43.238;23.110;2024-03-02T02:42:44;95989.34;;;9.08;100.00
39363;BME280;25088;43.238;23.110;2024-03-02T02:45:09;95973.63;;;8.88;100.00
39363;BME280;25088;43.238;23.110;2024-03-02T02:47:36;96003.56;;;9.15;100.00
39363;BME280;25088;43.238;23.110;2024-03-02T02:50:06;96006.03;;;9.17;100.00
39363;BME280;25088;43.238;23.110;2024-03-02T02:52:35;96001.31;;;9.07;100.00
39363;BME280;25088;43.238;23.110;2024-03-02T02:55:04;95997.50;;;9.08;100.00
39363;BME280;25088;43.238;23.110;2024-03-02T02:57:30;96000.88;;;9.20;100.00
39363;BME280;25088;43.238;23.110;2024-03-02T03:00:01;95999.31;;;9.29;100.00
39363;BME280;25088;43.238;23.110;2024-03-02T03:02:29;95989.47;;;9.23;100.00
39363;BME280;25088;43.238;23.110;2024-03-02T03:04:54;95993.53;;;9.21;100.00
39363;BME280;25088;43.238;23.110;2024-03-02T03:07:22;95977.16;;;9.16;100.00
39363;BME280;25088;43.238;23.110;2024-03-02T03:09:47;95996.25;;;9.21;100.00
39363;BME280;25088;43.238;23.110;2024-03-02T03:12:13;96003.00;;;9.13;100.00
39363;BME280;25088;43.238;23.110;2024-03-02T03:14:40;95969.38;;;8.97;100.00
39363;BME280;25088;43.238;23.110;2024-03-02T03:17:06;95997.84;;;9.17;100.00
39363;BME280;25088;43.238;23.110;2024-03-02T03:19:33;95985.66;;;9.24;100.00
39363;BME280;25088;43.238;23.110;2024-03-02T03:21:59;95984.59;;;9.25;100.00
39363;BME280;25088;43.238;23.110;2024-03-02T03:24:24;95991.16;;;9.35;100.00
39363;BME280;25088;43.238;23.110;2024-03-02T03:26:49;95994.16;;;9.33;100.00
39363;BME280;25088;43.238;23.110;2024-03-02T03:29:16;95997.47;;;9.35;100.00
39363;BME280;25088;43.238;23.110;2024-03-02T03:31:41;95993.03;;;9.29;100.00
39363;BME280;25088;43.238;23.110;2024-03-02T03:34:07;95993.34;;;9.32;100.00
39363;BME280;25088;43.238;23.110;2024-03-02T03:36:33;96007.81;;;9.38;100.00
39363;BME280;25088;43.238;23.110;2024-03-02T03:38:58;96000.47;;;9.39;100.00
39363;BME280;25088;43.238;23.110;2024-03-02T03:41:24;96009.50;;;9.44;100.00
39363;BME280;25088;43.238;23.110;2024-03-02T03:43:49;96010.94;;;9.20;100.00
39363;BME280;25088;43.238;23.110;2024-03-02T03:46:15;96006.28;;;9.15;100.00
39363;BME280;25088;43.238;23.110;2024-03-02T03:48:40;95996.41;;;9.09;100.00
39363;BME280;25088;43.238;23.110;2024-03-02T03:51:07;96016.66;;;9.18;100.00
39363;BME280;25088;43.238;23.110;2024-03-02T03:53:32;96024.03;;;9.23;100.00
39363;BME280;25088;43.238;23.110;2024-03-02T03:55:58;95993.72;;;9.14;100.00
39363;BME280;25088;43.238;23.110;2024-03-02T03:58:23;96016.44;;;9.25;100.00
39363;BME280;25088;43.238;23.110;2024-03-02T04:00:48;96015.38;;;9.26;100.00
39363;BME280;25088;43.238;23.110;2024-03-02T04:03:14;96002.69;;;9.10;100.00
39363;BME280;25088;43.238;23.110;2024-03-02T04:05:39;96016.91;;;9.17;100.00
39363;BME280;25088;43.238;23.110;2024-03-02T04:08:05;96020.72;;;9.16;100.00
39363;BME280;25088;43.238;23.110;2024-03-02T04:10:30;96020.41;;;9.12;100.00
39363;BME280;25088;43.238;23.110;2024-03-02T04:12:56;96020.72;;;9.16;100.00
39363;BME280;25088;43.238;23.110;2024-03-02T04:15:21;96006.53;;;9.14;100.00
39363;BME280;25088;43.238;23.110;2024-03-02T04:17:48;96014.69;;;9.14;100.00
39363;BME280;25088;43.238;23.110;2024-03-02T04:20:14;96013.97;;;9.23;100.00
39363;BME280;25088;43.238;23.110;2024-03-02T04:22:39;96008.13;;;9.10;100.00
39363;BME280;25088;43.238;23.110;2024-03-02T04:25:05;96017.41;;;9.14;100.00
39363;BME280;25088;43.238;23.110;2024-03-02T04:27:31;96019.91;;;9.15;100.00
39363;BME280;25088;43.238;23.110;2024-03-02T04:29:59;96022.81;;;9.09;100.00
39363;BME280;25088;43.238;23.110;2024-03-02T04:32:28;96011.56;;;9.00;100.00
39363;BME280;25088;43.238;23.110;2024-03-02T04:34:54;96021.53;;;9.16;100.00
39363;BME280;25088;43.238;23.110;2024-03-02T04:37:20;96027.53;;;9.18;100.00
39363;BME280;25088;43.238;23.110;2024-03-02T04:39:45;96023.28;;;9.27;99.86
39363;BME280;25088;43.238;23.110;2024-03-02T04:42:11;95999.44;;;9.13;99.67
39363;BME280;25088;43.238;23.110;2024-03-02T04:44:36;96007.16;;;9.21;100.00
39363;BME280;25088;43.238;23.110;2024-03-02T04:47:04;96015.91;;;9.28;100.00
39363;BME280;25088;43.238;23.110;2024-03-02T04:49:29;96028.97;;;9.26;100.00
39363;BME280;25088;43.238;23.110;2024-03-02T04:51:55;96026.84;;;9.33;100.00
39363;BME280;25088;43.238;23.110;2024-03-02T04:54:22;96020.00;;;9.25;100.00
39363;BME280;25088;43.238;23.110;2024-03-02T04:56:48;96031.16;;;9.29;100.00
39363;BME280;25088;43.238;23.110;2024-03-02T04:59:17;96031.44;;;9.27;100.00
39363;BME280;25088;43.238;23.110;2024-03-02T05:01:43;96031.22;;;9.34;100.00
39363;BME280;25088;43.238;23.110;2024-03-02T05:04:09;96025.53;;;9.36;99.96
39363;BME280;25088;43.238;23.110;2024-03-02T05:06:38;96038.88;;;9.37;100.00
39363;BME280;25088;43.238;23.110;2024-03-02T05:09:04;96033.84;;;9.24;100.00
39363;BME280;25088;43.238;23.110;2024-03-02T05:11:30;96023.03;;;9.34;100.00
39363;BME280;25088;43.238;23.110;2024-03-02T05:14:05;96035.84;;;9.33;100.00
39363;BME280;25088;43.238;23.110;2024-03-02T05:16:37;96026.34;;;9.36;100.00
39363;BME280;25088;43.238;23.110;2024-03-02T05:19:07;96038.88;;;9.37;99.79
39363;BME280;25088;43.238;23.110;2024-03-02T05:21:33;96037.25;;;9.36;100.00
39363;BME280;25088;43.238;23.110;2024-03-02T05:23:59;96044.84;;;9.34;99.89
39363;BME280;25088;43.238;23.110;2024-03-02T05:26:24;96038.88;;;9.37;100.00
39363;BME280;25088;43.238;23.110;2024-03-02T05:28:50;96042.97;;;9.40;99.55
39363;BME280;25088;43.238;23.110;2024-03-02T05:31:15;96023.22;;;9.22;100.00
39363;BME280;25088;43.238;23.110;2024-03-02T05:33:42;96035.88;;;9.39;100.00
39363;BME280;25088;43.238;23.110;2024-03-02T05:36:07;96049.81;;;9.42;99.87
39363;BME280;25088;43.238;23.110;2024-03-02T05:38:35;96056.91;;;9.43;99.98
39363;BME280;25088;43.238;23.110;2024-03-02T05:41:01;96053.63;;;9.41;99.81
39363;BME280;25088;43.238;23.110;2024-03-02T05:43:26;96025.69;;;9.24;100.00
39363;BME280;25088;43.238;23.110;2024-03-02T05:45:52;96057.41;;;9.35;100.00
39363;BME280;25088;43.238;23.110;2024-03-02T05:48:17;96071.84;;;9.36;100.00
39363;BME280;25088;43.238;23.110;2024-03-02T05:50:42;96072.94;;;9.40;100.00
39363;BME280;25088;43.238;23.110;2024-03-02T05:53:08;96068.56;;;9.39;100.00
39363;BME280;25088;43.238;23.110;2024-03-02T05:55:33;96070.28;;;9.45;100.00
39363;BME280;25088;43.238;23.110;2024-03-02T05:57:59;96075.16;;;9.43;100.00
39363;BME280;25088;43.238;23.110;2024-03-02T06:00:24;96064.16;;;9.32;100.00
39363;BME280;25088;43.238;23.110;2024-03-02T06:02:50;96042.25;;;9.17;100.00
39363;BME280;25088;43.238;23.110;2024-03-02T06:05:15;96063.72;;;9.41;100.00
39363;BME280;25088;43.238;23.110;2024-03-02T06:07:43;96071.00;;;9.35;100.00
39363;BME280;25088;43.238;23.110;2024-03-02T06:10:08;96076.69;;;9.33;100.00
39363;BME280;25088;43.238;23.110;2024-03-02T06:12:34;96069.06;;;9.30;100.00
39363;BME280;25088;43.238;23.110;2024-03-02T06:14:59;96062.81;;;9.30;100.00
39363;BME280;25088;43.238;23.110;2024-03-02T06:17:25;96080.34;;;9.44;100.00
39363;BME280;25088;43.238;23.110;2024-03-02T06:19:50;96072.88;;;9.35;100.00
39363;BME280;25088;43.238;23.110;2024-03-02T06:22:16;96071.88;;;9.41;100.00
39363;BME280;25088;43.238;23.110;2024-03-02T06:24:41;96068.56;;;9.39;99.90
39363;BME280;25088;43.238;23.110;2024-03-02T06:27:07;96088.28;;;9.46;99.64
39363;BME280;25088;43.238;23.110;2024-03-02T06:29:33;96083.06;;;9.44;99.92
39363;BME280;25088;43.238;23.110;2024-03-02T06:32:01;96076.28;;;9.47;99.87
39363;BME280;25088;43.238;23.110;2024-03-02T06:34:27;96086.19;;;9.58;98.60
39363;BME280;25088;43.238;23.110;2024-03-02T06:36:52;96088.91;;;9.58;99.02
39363;BME280;25088;43.238;23.110;2024-03-02T06:39:17;96082.03;;;9.50;99.24
39363;BME280;25088;43.238;23.110;2024-03-02T06:41:43;96091.59;;;9.53;99.75
39363;BME280;25088;43.238;23.110;2024-03-02T06:44:08;96093.25;;;9.59;99.40
39363;BME280;25088;43.238;23.110;2024-03-02T06:46:34;96081.97;;;9.40;99.65
39363;BME280;25088;43.238;23.110;2024-03-02T06:48:59;96091.59;;;9.53;100.00
39363;BME280;25088;43.238;23.110;2024-03-02T06:51:24;96093.97;;;9.44;99.17
39363;BME280;25088;43.238;23.110;2024-03-02T06:53:50;96091.50;;;9.43;99.19
39363;BME280;25088;43.238;23.110;2024-03-02T06:56:15;96067.97;;;9.31;99.31
39363;BME280;25088;43.238;23.110;2024-03-02T06:58:41;96094.88;;;9.55;99.21
39363;BME280;25088;43.238;23.110;2024-03-02T07:01:08;96082.88;;;9.51;98.25
39363;BME280;25088;43.238;23.110;2024-03-02T07:03:33;96081.22;;;9.50;98.23
39363;BME280;25088;43.238;23.110;2024-03-02T07:05:59;96077.16;;;9.52;98.69
39363;BME280;25088;43.238;23.110;2024-03-02T07:08:24;96087.53;;;9.55;98.85
39363;BME280;25088;43.238;23.110;2024-03-02T07:10:50;96098.75;;;9.64;97.65
39363;BME280;25088;43.238;23.110;2024-03-02T07:13:15;96097.47;;;9.72;96.92
39363;BME280;25088;43.238;23.110;2024-03-02T07:15:40;96103.75;;;9.72;96.62
39363;BME280;25088;43.238;23.110;2024-03-02T07:18:12;96094.19;;;9.70;95.79
39363;BME280;25088;43.238;23.110;2024-03-02T07:20:37;96093.97;;;9.76;94.65
39363;BME280;25088;43.238;23.110;2024-03-02T07:23:04;96109.31;;;9.88;95.24
39363;BME280;25088;43.238;23.110;2024-03-02T07:25:29;96098.94;;;9.84;95.08
39363;BME280;25088;43.238;23.110;2024-03-02T07:27:55;96103.38;;;9.96;94.55
39363;BME280;25088;43.238;23.110;2024-03-02T07:30:21;96100.88;;;9.94;94.35
39363;BME280;25088;43.238;23.110;2024-03-02T07:32:49;96103.88;;;9.93;94.41
39363;BME280;25088;43.238;23.110;2024-03-02T07:35:15;96101.16;;;9.93;94.45
39363;BME280;25088;43.238;23.110;2024-03-02T07:37:43;96103.00;;;9.82;95.48
39363;BME280;25088;43.238;23.110;2024-03-02T07:40:10;96111.72;;;9.84;95.10
39363;BME280;25088;43.238;23.110;2024-03-02T07:42:40;96106.53;;;9.82;95.43
39363;BME280;25088;43.238;23.110;2024-03-02T07:45:06;96112.81;;;9.83;95.22
39363;BME280;25088;43.238;23.110;2024-03-02T07:47:33;96112.34;;;9.91;94.70
39363;BME280;25088;43.238;23.110;2024-03-02T07:49:59;96114.84;;;9.98;93.17
39363;BME280;25088;43.238;23.110;2024-03-02T07:52:24;96109.91;;;9.95;92.87
39363;BME280;25088;43.238;23.110;2024-03-02T07:54:50;96104.72;;;9.93;93.99
39363;BME280;25088;43.238;23.110;2024-03-02T07:57:16;96089.94;;;9.89;93.00
39363;BME280;25088;43.238;23.110;2024-03-02T07:59:42;96110.50;;;10.02;92.56
39363;BME280;25088;43.238;23.110;2024-03-02T08:02:08;96109.69;;;10.01;91.49
39363;BME280;25088;43.238;23.110;2024-03-02T08:04:34;96114.09;;;10.07;90.80
39363;BME280;25088;43.238;23.110;2024-03-02T08:06:59;96104.19;;;9.96;91.62
39363;BME280;25088;43.238;23.110;2024-03-02T08:09:25;96117.94;;;10.12;91.98
39363;BME280;25088;43.238;23.110;2024-03-02T08:11:51;96124.47;;;10.10;93.14
39363;BME280;25088;43.238;23.110;2024-03-02T08:14:16;96119.34;;;10.19;92.61
39363;BME280;25088;43.238;23.110;2024-03-02T08:16:42;96095.81;;;10.08;92.82
39363;BME280;25088;43.238;23.110;2024-03-02T08:19:07;96118.88;;;10.27;92.49
39363;BME280;25088;43.238;23.110;2024-03-02T08:21:34;96116.41;;;10.26;91.83
39363;BME280;25088;43.238;23.110;2024-03-02T08:24:02;96111.50;;;10.28;92.38
39363;BME280;25088;43.238;23.110;2024-03-02T08:26:27;96120.78;;;10.27;91.35
39363;BME280;25088;43.238;23.110;2024-03-02T08:28:57;96120.25;;;10.25;91.49
39363;BME280;25088;43.238;23.110;2024-03-02T08:31:23;96120.78;;;10.27;92.43
39363;BME280;25088;43.238;23.110;2024-03-02T08:33:48;96124.34;;;10.27;91.56
39363;BME280;25088;43.238;23.110;2024-03-02T08:36:14;96124.34;;;10.27;91.64
39363;BME280;25088;43.238;23.110;2024-03-02T08:38:40;96125.97;;;10.28;92.29
39363;BME280;25088;43.238;23.110;2024-03-02T08:41:06;96128.75;;;10.39;91.68
39363;BME280;25088;43.238;23.110;2024-03-02T08:43:32;96127.47;;;10.14;92.48
39363;BME280;25088;43.238;23.110;2024-03-02T08:45:58;96131.88;;;10.15;92.40
39363;BME280;25088;43.238;23.110;2024-03-02T08:48:24;96133.78;;;10.15;92.72
39363;BME280;25088;43.238;23.110;2024-03-02T08:50:49;96134.03;;;10.13;92.78
39363;BME280;25088;43.238;23.110;2024-03-02T08:53:15;96132.13;;;10.14;93.21
39363;BME280;25088;43.238;23.110;2024-03-02T08:55:45;96137.03;;;10.12;93.93
39363;BME280;25088;43.238;23.110;2024-03-02T08:58:11;96126.56;;;9.98;94.46
39363;BME280;25088;43.238;23.110;2024-03-02T09:00:36;96135.88;;;10.02;94.36
39363;BME280;25088;43.238;23.110;2024-03-02T09:03:02;96137.84;;;10.12;94.52
39363;BME280;25088;43.238;23.110;2024-03-02T09:05:28;96133.50;;;10.16;94.92
39363;BME280;25088;43.238;23.110;2024-03-02T09:07:53;96132.41;;;10.17;96.54
39363;BME280;25088;43.238;23.110;2024-03-02T09:10:19;96125.09;;;10.23;97.57
39363;BME280;25088;43.238;23.110;2024-03-02T09:12:45;96096.88;;;10.02;95.81
39363;BME280;25088;43.238;23.110;2024-03-02T09:15:10;96140.44;;;10.29;96.08
39363;BME280;25088;43.238;23.110;2024-03-02T09:17:36;96140.50;;;10.39;95.97
39363;BME280;25088;43.238;23.110;2024-03-02T09:20:01;96141.44;;;10.55;95.42
39363;BME280;25088;43.238;23.110;2024-03-02T09:22:29;96147.97;;;10.59;94.17
39363;BME280;25088;43.238;23.110;2024-03-02T09:24:55;96142.25;;;10.55;93.24
39363;BME280;25088;43.238;23.110;2024-03-02T09:27:21;96146.91;;;10.60;92.94
39363;BME280;25088;43.238;23.110;2024-03-02T09:29:47;96128.56;;;10.50;92.16
39363;BME280;25088;43.238;23.110;2024-03-02T09:32:13;96128.88;;;10.64;92.43
39363;BME280;25088;43.238;23.110;2024-03-02T09:34:39;96138.19;;;10.68;92.92
39363;BME280;25088;43.238;23.110;2024-03-02T09:37:05;96139.81;;;10.64;93.13
39363;BME280;25088;43.238;23.110;2024-03-02T09:39:31;96135.38;;;10.48;94.00
39363;BME280;25088;43.238;23.110;2024-03-02T09:41:58;96137.50;;;10.35;92.97
39363;BME280;25088;43.238;23.110;2024-03-02T09:44:24;96144.31;;;10.38;94.87
39363;BME280;25088;43.238;23.110;2024-03-02T09:46:51;96131.25;;;10.40;96.14
39363;BME280;25088;43.238;23.110;2024-03-02T09:49:17;96147.38;;;10.47;95.09
39363;BME280;25088;43.238;23.110;2024-03-02T09:51:49;96136.91;;;10.33;95.30
39363;BME280;25088;43.238;23.110;2024-03-02T09:54:17;96152.25;;;10.40;96.86
39363;BME280;25088;43.238;23.110;2024-03-02T09:56:44;96136.41;;;10.37;95.86
39363;BME280;25088;43.238;23.110;2024-03-02T09:59:09;96141.59;;;10.38;95.88
39363;BME280;25088;43.238;23.110;2024-03-02T10:01:35;96142.25;;;10.55;95.43
39363;BME280;25088;43.238;23.110;2024-03-02T10:04:00;96152.09;;;10.61;93.85
39363;BME280;25088;43.238;23.110;2024-03-02T10:06:28;96141.91;;;10.47;93.87
39363;BME280;25088;43.238;23.110;2024-03-02T10:08:54;96155.28;;;10.48;93.54
39363;BME280;25088;43.238;23.110;2024-03-02T10:11:31;96155.06;;;10.55;93.84
39363;BME280;25088;43.238;23.110;2024-03-02T10:14:12;96157.81;;;10.55;92.78
39363;BME280;25088;43.238;23.110;2024-03-02T10:16:40;96139.41;;;10.35;92.35
39363;BME280;25088;43.238;23.110;2024-03-02T10:21:47;96151.19;;;10.46;92.21
39363;BME280;25088;43.238;23.110;2024-03-02T10:24:13;96152.84;;;10.52;91.86
39363;BME280;25088;43.238;23.110;2024-03-02T10:26:39;96140.00;;;10.47;91.97
39363;BME280;25088;43.238;23.110;2024-03-02T10:29:04;96153.34;;;10.44;92.37
39363;BME280;25088;43.238;23.110;2024-03-02T10:31:30;96150.38;;;10.45;93.28
39363;BME280;25088;43.238;23.110;2024-03-02T10:33:55;96138.81;;;10.33;93.64
39363;BME280;25088;43.238;23.110;2024-03-02T10:36:22;96150.03;;;10.37;94.32
39363;BME280;25088;43.238;23.110;2024-03-02T10:38:48;96137.22;;;10.37;93.25
39363;BME280;25088;43.238;23.110;2024-03-02T10:41:18;96137.75;;;10.39;91.98
39363;BME280;25088;43.238;23.110;2024-03-02T10:43:44;96143.00;;;10.46;91.44
39363;BME280;25088;43.238;23.110;2024-03-02T10:46:11;96143.06;;;10.56;91.32
39363;BME280;25088;43.238;23.110;2024-03-02T10:48:39;96145.56;;;10.68;90.97
39363;BME280;25088;43.238;23.110;2024-03-02T10:51:06;96143.09;;;10.66;90.95
39363;BME280;25088;43.238;23.110;2024-03-02T10:53:31;96135.94;;;10.50;92.30
39363;BME280;25088;43.238;23.110;2024-03-02T10:55:58;96139.50;;;10.50;93.11
39363;BME280;25088;43.238;23.110;2024-03-02T10:58:31;96119.50;;;10.40;92.69
39363;BME280;25088;43.238;23.110;2024-03-02T11:01:03;96129.91;;;10.48;92.70
39363;BME280;25088;43.238;23.110;2024-03-02T11:03:35;96106.41;;;10.42;91.56
39363;BME280;25088;43.238;23.110;2024-03-02T11:06:03;96134.31;;;10.59;91.56
39363;BME280;25088;43.238;23.110;2024-03-02T11:08:34;96137.66;;;10.66;91.74
39363;BME280;25088;43.238;23.110;2024-03-02T11:11:06;96136.56;;;10.72;90.85
39363;BME280;25088;43.238;23.110;2024-03-02T11:13:33;96116.34;;;10.63;91.32
39363;BME280;25088;43.238;23.110;2024-03-02T11:16:06;96135.78;;;10.77;90.99
39363;BME280;25088;43.238;23.110;2024-03-02T11:18:34;96127.28;;;10.73;90.01
39363;BME280;25088;43.238;23.110;2024-03-02T11:21:02;96133.38;;;10.85;89.84
39363;BME280;25088;43.238;23.110;2024-03-02T11:23:32;96126.84;;;10.92;89.35
39363;BME280;25088;43.238;23.110;2024-03-02T11:28:46;96097.06;;;10.85;87.81
39363;BME280;25088;43.238;23.110;2024-03-02T11:31:11;96129.59;;;10.97;88.23
39363;BME280;25088;43.238;23.110;2024-03-02T11:33:37;96123.31;;;11.01;87.61
39363;BME280;25088;43.238;23.110;2024-03-02T11:36:03;96124.66;;;10.99;87.81
39363;BME280;25088;43.238;23.110;2024-03-02T11:38:32;96126.84;;;10.97;87.60
39363;BME280;25088;43.238;23.110;2024-03-02T11:41:08;96123.53;;;10.84;89.56
39363;BME280;25088;43.238;23.110;2024-03-02T11:43:37;96109.88;;;10.84;88.23
39363;BME280;25088;43.238;23.110;2024-03-02T11:46:05;96135.00;;;10.81;89.00
39363;BME280;25088;43.238;23.110;2024-03-02T11:48:32;96127.31;;;10.78;89.11
39363;BME280;25088;43.238;23.110;2024-03-02T11:51:01;96122.13;;;10.72;89.78
39363;BME280;25088;43.238;23.110;2024-03-02T11:53:27;96113.09;;;10.71;89.93
39363;BME280;25088;43.238;23.110;2024-03-02T11:55:58;96119.94;;;10.79;88.27
39363;BME280;25088;43.238;23.110;2024-03-02T11:58:24;96126.28;;;10.84;88.45
39363;BME280;25088;43.238;23.110;2024-03-02T12:00:53;96120.25;;;10.87;88.67
39363;BME280;25088;43.238;23.110;2024-03-02T12:03:22;96122.19;;;10.92;89.86
39363;BME280;25088;43.238;23.110;2024-03-02T12:05:51;96118.94;;;10.95;89.15
39363;BME280;25088;43.238;23.110;2024-03-02T12:08:18;96103.06;;;10.87;88.08
39363;BME280;25088;43.238;23.110;2024-03-02T12:10:56;96120.88;;;11.05;88.01
39363;BME280;25088;43.238;23.110;2024-03-02T12:13:21;96118.69;;;11.07;87.65
39363;BME280;25088;43.238;23.110;2024-03-02T12:15:54;96096.78;;;10.92;88.62
39363;BME280;25088;43.238;23.110;2024-03-02T12:18:21;96120.09;;;11.15;88.01
39363;BME280;25088;43.238;23.110;2024-03-02T12:20:48;96121.16;;;11.19;87.87
39363;BME280;25088;43.238;23.110;2024-03-02T12:23:14;96119.53;;;11.23;85.13
39363;BME280;25088;43.238;23.110;2024-03-02T12:25:39;96120.94;;;11.25;84.62
39363;BME280;25088;43.238;23.110;2024-03-02T12:28:05;96119.84;;;11.31;83.80
39363;BME280;25088;43.238;23.110;2024-03-02T12:30:35;96116.03;;;11.37;83.98
39363;BME280;25088;43.238;23.110;2024-03-02T12:33:01;96103.91;;;11.03;85.07
39363;BME280;25088;43.238;23.110;2024-03-02T12:35:27;96109.38;;;10.98;86.92
39363;BME280;25088;43.238;23.110;2024-03-02T12:37:53;96118.72;;;11.17;86.99
39363;BME280;25088;43.238;23.110;2024-03-02T12:40:20;96118.16;;;11.05;87.40
39363;BME280;25088;43.238;23.110;2024-03-02T12:42:47;96125.75;;;10.93;87.93
39363;BME280;25088;43.238;23.110;2024-03-02T12:45:13;96111.78;;;10.84;88.53
39363;BME280;25088;43.238;23.110;2024-03-02T12:47:40;96126.84;;;10.97;87.68
39363;BME280;25088;43.238;23.110;2024-03-02T12:50:07;96118.09;;;10.84;88.80
39363;BME280;25088;43.238;23.110;2024-03-02T12:52:33;96105.53;;;10.94;87.95
39363;BME280;25088;43.238;23.110;2024-03-02T12:55:04;96133.16;;;11.07;87.18
39363;BME280;25088;43.238;23.110;2024-03-02T12:57:33;96125.47;;;10.89;87.71
39363;BME280;25088;43.238;23.110;2024-03-02T13:00:03;96124.91;;;10.87;88.77
39363;BME280;25088;43.238;23.110;2024-03-02T13:02:40;96131.75;;;10.90;89.13